Bigcreek, South Carolina
Current Conditions -  °F | °C
As of 3:55 PM on Tuesday 21 Oct 2014 (Local Time) from KEOE Reporting Station
Scattered Clouds Scattered Clouds  
Wind Chill: 75°   Ceiling: Unl
Heat Index: 75°   Visibility: 10mi
Dew Point: 52°   Wind: 15mph
Humidity: 44%   Direction: 250°WSW
Pressure: 29.9"   Gusts: 20mph
Location:  34.2477°N, 81.8399°W
Report Text: KEOE 211955Z AUTO 25013G17KT 230V290 10SM SCT060 24/11 A2990 RMK AO2
Loading
Personal Weather Stations






























Interactive Weather Map
Tropical Storm Tracking
New forecast layout! Learn more

10-Day Weather Forecast

Advertisements
Track Severe Weather on mobile